Time;durP1;ratioP1;P1;durP2;ratioP2;P2;SDS_P1;SDS_P2;PMS_P1;PMS_P2;Temp;Humidity;BMP_temperature;BMP_pressure;BME280_temperature;BME280_humidity;BME280_pressure;Samples;Min_cycle;Max_cycle;Signal;HPM_P1;HPM_P2
2023/04/25 00:01:19;;;;;;;0.40;0.40;;;18.10;80.40;;;;;;4985001;28;20077;-76
2023/04/25 00:03:45;;;;;;;1.13;0.65;;;18.10;80.50;;;;;;4984153;28;21268;-76
2023/04/25 00:06:12;;;;;;;0.40;0.30;;;18.10;80.40;;;;;;4985096;28;20155;-76
2023/04/25 00:08:38;;;;;;;0.40;0.40;;;18.10;80.50;;;;;;4987439;28;20080;-76
2023/04/25 00:11:03;;;;;;;0.50;0.50;;;18.10;80.40;;;;;;4986831;28;20137;-76
2023/04/25 00:13:29;;;;;;;0.32;0.32;;;18.10;80.40;;;;;;4985359;28;20405;-76
2023/04/25 00:15:56;;;;;;;0.20;0.20;;;18.10;80.40;;;;;;4988725;28;20035;-76
2023/04/25 00:18:21;;;;;;;0.20;0.20;;;18.10;80.40;;;;;;4971821;28;20074;-77
2023/04/25 00:20:47;;;;;;;0.35;0.35;;;18.10;80.40;;;;;;4989131;28;20088;-77
2023/04/25 00:23:17;;;;;;;0.40;0.40;;;18.10;80.40;;;;;;4990199;28;20042;-76
2023/04/25 00:25:46;;;;;;;0.45;0.45;;;18.10;81.10;;;;;;4986327;28;20042;-76
2023/04/25 00:28:12;;;;;;;0.30;0.30;;;18.10;80.50;;;;;;4986601;28;20042;-76
2023/04/25 00:30:38;;;;;;;0.50;0.50;;;18.10;81.20;;;;;;4988516;28;26918;-76
2023/04/25 00:33:04;;;;;;;0.47;0.47;;;18.10;80.30;;;;;;4988356;28;20039;-76
2023/04/25 00:35:30;;;;;;;0.43;0.30;;;18.10;80.30;;;;;;4989720;28;20057;-77
2023/04/25 00:37:55;;;;;;;0.52;0.40;;;18.10;80.30;;;;;;4989779;28;20531;-76
2023/04/25 00:40:21;;;;;;;0.40;0.40;;;18.10;80.30;;;;;;4987303;28;20057;-76
2023/04/25 00:42:47;;;;;;;0.88;0.60;;;18.00;80.40;;;;;;4987112;28;20381;-76
2023/04/25 00:45:14;;;;;;;0.55;0.40;;;18.00;80.30;;;;;;4988805;28;20050;-77
2023/04/25 00:47:40;;;;;;;0.38;0.30;;;18.10;80.30;;;;;;4987444;28;20462;-76
2023/04/25 00:50:06;;;;;;;0.40;0.40;;;18.10;80.30;;;;;;5012079;28;20034;-76
2023/04/25 00:52:32;;;;;;;0.40;0.40;;;18.00;80.30;;;;;;4987251;28;20118;-76
2023/04/25 00:54:57;;;;;;;0.50;0.45;;;18.00;80.30;;;;;;4997496;28;20122;-76
2023/04/25 00:57:23;;;;;;;0.47;0.47;;;18.00;80.30;;;;;;4989241;28;20117;-76
2023/04/25 00:59:49;;;;;;;0.40;0.40;;;18.00;80.30;;;;;;4990511;28;20133;-76
2023/04/25 01:02:14;;;;;;;0.65;0.60;;;18.00;80.30;;;;;;5003245;28;20038;-76
2023/04/25 01:04:40;;;;;;;0.50;0.50;;;18.00;80.20;;;;;;4989071;28;20097;-76
2023/04/25 01:07:05;;;;;;;0.38;0.38;;;18.00;80.30;;;;;;4988924;28;20046;-76
2023/04/25 01:09:34;;;;;;;0.30;0.30;;;18.00;81.00;;;;;;4985674;28;20402;-77
2023/04/25 01:12:00;;;;;;;0.60;0.40;;;18.00;80.30;;;;;;4989361;28;20050;-76
2023/04/25 01:14:26;;;;;;;0.30;0.30;;;18.00;80.30;;;;;;4998701;28;20500;-76
2023/04/25 01:16:52;;;;;;;0.40;0.40;;;18.00;80.20;;;;;;4999977;28;20074;-76
2023/04/25 01:19:18;;;;;;;0.30;0.30;;;18.00;80.30;;;;;;4987948;28;20080;-76
2023/04/25 01:21:43;;;;;;;0.30;0.30;;;18.00;80.10;;;;;;4986143;28;20047;-76
2023/04/25 01:24:09;;;;;;;0.30;0.30;;;18.00;80.20;;;;;;4987616;28;20030;-77
2023/04/25 01:26:35;;;;;;;0.30;0.30;;;18.00;80.20;;;;;;5017458;28;20101;-76
2023/04/25 01:29:00;;;;;;;0.70;0.30;;;17.90;80.10;;;;;;4983500;28;20042;-76
2023/04/25 01:31:27;;;;;;;0.38;0.38;;;17.90;80.10;;;;;;4982288;28;20051;-77
2023/04/25 01:33:52;;;;;;;0.40;0.40;;;18.00;80.30;;;;;;4985279;28;20045;-77
2023/04/25 01:36:18;;;;;;;0.30;0.30;;;17.90;80.20;;;;;;4995030;28;20420;-77
2023/04/25 01:38:44;;;;;;;0.40;0.30;;;18.00;80.30;;;;;;5013289;28;20096;-76
2023/04/25 01:41:09;;;;;;;0.45;0.40;;;18.00;80.20;;;;;;5000286;28;20041;-77
2023/04/25 01:43:35;;;;;;;0.70;0.52;;;17.90;80.20;;;;;;5007331;28;20056;-76
2023/04/25 01:46:01;;;;;;;0.63;0.63;;;17.90;80.20;;;;;;4992304;28;20041;-76
2023/04/25 01:48:26;;;;;;;0.57;0.40;;;17.90;80.10;;;;;;4975840;28;20501;-76
2023/04/25 01:50:52;;;;;;;0.45;0.45;;;17.90;80.00;;;;;;4996364;28;20061;-77
2023/04/25 01:53:17;;;;;;;0.30;0.30;;;17.90;80.10;;;;;;4987702;28;20050;-76
2023/04/25 01:55:43;;;;;;;0.68;0.50;;;17.90;80.10;;;;;;4985479;28;20049;-77
2023/04/25 01:58:09;;;;;;;0.40;0.40;;;17.90;80.10;;;;;;4985425;28;20042;-77
2023/04/25 02:00:38;;;;;;;0.43;0.40;;;17.90;80.10;;;;;;4987663;28;20778;-77
2023/04/25 02:03:04;;;;;;;0.80;0.52;;;17.90;80.10;;;;;;4986815;28;20054;-77
2023/04/25 02:05:35;;;;;;;0.50;0.47;;;17.90;80.10;;;;;;4984059;28;20053;-77
2023/04/25 02:08:01;;;;;;;0.30;0.30;;;17.90;80.10;;;;;;4990243;28;20037;-77
2023/04/25 02:10:26;;;;;;;0.50;0.43;;;17.90;80.10;;;;;;4986707;28;20396;-77
2023/04/25 02:12:52;;;;;;;0.38;0.38;;;17.90;80.20;;;;;;4985847;28;20575;-77
2023/04/25 02:15:17;;;;;;;0.40;0.30;;;17.90;80.20;;;;;;4984427;28;20432;-77
2023/04/25 02:17:45;;;;;;;0.32;0.32;;;17.90;80.10;;;;;;4987418;28;20069;-77
2023/04/25 02:20:10;;;;;;;0.50;0.40;;;17.90;80.00;;;;;;4987650;28;20524;-77
2023/04/25 02:22:36;;;;;;;0.55;0.50;;;17.90;80.10;;;;;;4988017;28;20126;-77
2023/04/25 02:25:04;;;;;;;0.35;0.35;;;17.90;80.10;;;;;;4987304;28;20046;-77
2023/04/25 02:27:30;;;;;;;0.30;0.30;;;17.90;80.00;;;;;;4988255;28;20047;-77
2023/04/25 02:29:55;;;;;;;0.63;0.50;;;17.90;80.00;;;;;;4988004;28;20042;-77
2023/04/25 02:32:21;;;;;;;0.32;0.32;;;17.90;80.00;;;;;;4984797;28;20169;-77
2023/04/25 02:34:47;;;;;;;0.40;0.38;;;17.90;80.00;;;;;;4986915;28;20796;-77
2023/04/25 02:37:13;;;;;;;0.40;0.40;;;17.90;80.00;;;;;;4986866;28;20427;-77
2023/04/25 02:39:39;;;;;;;0.30;0.30;;;17.90;80.00;;;;;;4967975;28;20550;-77
2023/04/25 02:42:04;;;;;;;0.30;0.30;;;17.90;80.00;;;;;;4989382;28;20049;-77
2023/04/25 02:44:30;;;;;;;0.40;0.40;;;17.90;80.00;;;;;;4985523;28;20042;-77
2023/04/25 02:46:55;;;;;;;0.40;0.40;;;17.90;80.00;;;;;;4985298;28;20166;-77
2023/04/25 02:49:21;;;;;;;0.40;0.32;;;17.90;80.00;;;;;;4986273;28;20048;-77
2023/04/25 02:51:46;;;;;;;0.40;0.40;;;17.90;80.00;;;;;;4984546;28;20078;-77
2023/04/25 02:54:12;;;;;;;0.65;0.45;;;17.90;80.00;;;;;;4987088;28;20512;-77
2023/04/25 02:56:37;;;;;;;0.30;0.30;;;17.90;80.10;;;;;;4986099;28;20073;-77
2023/04/25 02:59:03;;;;;;;0.32;0.30;;;17.90;80.00;;;;;;4986395;28;20089;-77
2023/04/25 03:01:29;;;;;;;0.40;0.40;;;17.80;80.00;;;;;;4981490;28;20727;-77
2023/04/25 03:03:54;;;;;;;0.30;0.25;;;17.90;80.00;;;;;;4985955;28;20047;-77
2023/04/25 03:06:20;;;;;;;0.30;0.30;;;17.80;79.90;;;;;;4988126;28;20046;-77
2023/04/25 03:08:45;;;;;;;0.60;0.60;;;17.90;79.90;;;;;;4986483;28;20579;-77
2023/04/25 03:11:11;;;;;;;0.30;0.30;;;17.80;79.80;;;;;;4987256;28;20050;-77
2023/04/25 03:13:36;;;;;;;0.40;0.40;;;17.80;79.80;;;;;;4984742;28;20137;-77
2023/04/25 03:16:02;;;;;;;0.45;0.40;;;17.80;79.90;;;;;;4985332;28;20046;-76
2023/04/25 03:18:27;;;;;;;0.38;0.38;;;17.80;79.90;;;;;;4985486;28;20553;-77
2023/04/25 03:20:53;;;;;;;0.30;0.30;;;17.80;79.90;;;;;;4985922;28;20136;-77
2023/04/25 03:23:18;;;;;;;0.50;0.50;;;17.80;79.90;;;;;;4985152;28;20060;-77
2023/04/25 03:25:44;;;;;;;0.80;0.60;;;17.80;79.90;;;;;;4983370;28;20070;-77
2023/04/25 03:28:10;;;;;;;1.40;0.52;;;17.80;80.60;;;;;;4986811;28;20049;-77
2023/04/25 03:30:35;;;;;;;0.60;0.60;;;17.80;79.90;;;;;;5005970;28;20061;-77
2023/04/25 03:33:01;;;;;;;0.63;0.40;;;17.80;80.00;;;;;;5007458;28;20418;-76
2023/04/25 03:35:26;;;;;;;0.70;0.50;;;17.80;79.90;;;;;;5004840;28;20516;-77
2023/04/25 03:37:52;;;;;;;0.60;0.40;;;17.80;79.90;;;;;;5002937;28;20090;-76
2023/04/25 03:40:17;;;;;;;0.60;0.60;;;17.80;79.80;;;;;;5005919;28;20062;-77
2023/04/25 03:42:43;;;;;;;0.50;0.50;;;17.80;79.80;;;;;;5004951;28;20050;-77
2023/04/25 03:45:09;;;;;;;0.50;0.50;;;17.80;79.90;;;;;;5005450;28;20525;-77
2023/04/25 03:47:34;;;;;;;0.50;0.50;;;17.70;79.90;;;;;;5002335;28;20662;-77
2023/04/25 03:50:01;;;;;;;0.40;0.40;;;17.80;80.00;;;;;;5004427;28;20427;-77
2023/04/25 03:52:27;;;;;;;0.50;0.50;;;17.80;80.00;;;;;;5002793;28;20042;-77
2023/04/25 03:54:52;;;;;;;0.60;0.50;;;17.80;79.80;;;;;;5007221;28;20392;-77
2023/04/25 03:57:18;;;;;;;0.43;0.35;;;17.80;79.90;;;;;;5005861;28;20113;-77
2023/04/25 03:59:44;;;;;;;0.45;0.40;;;17.80;79.80;;;;;;5004408;28;20041;-77
2023/04/25 04:02:10;;;;;;;1.13;0.43;;;17.80;79.90;;;;;;5004643;28;20034;-77
2023/04/25 04:04:36;;;;;;;0.50;0.50;;;17.80;79.70;;;;;;5003752;28;20054;-77
2023/04/25 04:07:01;;;;;;;0.38;0.30;;;17.80;79.80;;;;;;5003997;28;20045;-77
2023/04/25 04:09:27;;;;;;;0.60;0.55;;;17.80;79.80;;;;;;5002412;28;20088;-77
2023/04/25 04:11:53;;;;;;;0.57;0.40;;;17.80;79.80;;;;;;5005547;28;20122;-76
2023/04/25 04:14:18;;;;;;;0.50;0.50;;;17.70;79.70;;;;;;5005109;28;20408;-76
2023/04/25 04:16:44;;;;;;;0.40;0.40;;;17.70;79.80;;;;;;5004835;28;20416;-76
2023/04/25 04:19:10;;;;;;;0.47;0.45;;;17.80;79.80;;;;;;4987881;28;20090;-77
2023/04/25 04:21:36;;;;;;;0.55;0.40;;;17.80;79.80;;;;;;5000518;28;20053;-77
2023/04/25 04:24:01;;;;;;;0.60;0.60;;;17.70;79.70;;;;;;5006631;28;20048;-77
2023/04/25 04:26:27;;;;;;;0.50;0.50;;;17.80;79.70;;;;;;5004046;28;20041;-76
2023/04/25 04:28:54;;;;;;;0.70;0.50;;;17.80;79.70;;;;;;5005399;28;20038;-77
2023/04/25 04:31:21;;;;;;;0.40;0.30;;;17.70;79.80;;;;;;5004922;28;20050;-77
2023/04/25 04:33:46;;;;;;;0.65;0.40;;;17.70;79.70;;;;;;5003551;28;20095;-77
2023/04/25 04:36:12;;;;;;;0.50;0.30;;;17.70;79.80;;;;;;5004760;28;20124;-77
2023/04/25 04:38:38;;;;;;;0.40;0.35;;;17.70;79.80;;;;;;4984927;28;20053;-76
2023/04/25 04:41:04;;;;;;;0.30;0.30;;;17.80;79.80;;;;;;5004878;28;20042;-77
2023/04/25 04:43:29;;;;;;;0.40;0.40;;;17.70;79.70;;;;;;5004642;28;20054;-77
2023/04/25 04:45:58;;;;;;;0.68;0.50;;;17.70;79.80;;;;;;5004122;28;20034;-76
2023/04/25 04:48:24;;;;;;;0.32;0.30;;;17.70;79.60;;;;;;4983142;28;20474;-76
2023/04/25 04:50:50;;;;;;;0.50;0.50;;;17.70;79.80;;;;;;5003361;28;20062;-76
2023/04/25 04:53:15;;;;;;;0.50;0.45;;;17.70;79.70;;;;;;5003046;28;20049;-76
2023/04/25 04:55:41;;;;;;;0.75;0.50;;;17.70;79.70;;;;;;5007810;28;22904;-77
2023/04/25 04:58:07;;;;;;;0.30;0.30;;;17.70;79.60;;;;;;5008286;28;20100;-77
2023/04/25 05:00:32;;;;;;;0.40;0.40;;;17.70;79.60;;;;;;5006847;28;20034;-77
2023/04/25 05:02:58;;;;;;;0.40;0.30;;;17.70;79.70;;;;;;5009670;28;20061;-77
2023/04/25 05:05:24;;;;;;;0.40;0.40;;;17.70;79.80;;;;;;5007827;28;20076;-87
2023/04/25 05:07:49;;;;;;;0.30;0.30;;;17.70;79.70;;;;;;4991616;28;20042;-87
2023/04/25 05:10:15;;;;;;;0.50;0.50;;;17.70;79.60;;;;;;5007233;28;20046;-87
2023/04/25 05:12:40;;;;;;;0.55;0.40;;;17.70;79.70;;;;;;5006859;28;20042;-87
2023/04/25 05:15:06;;;;;;;0.52;0.52;;;17.70;79.60;;;;;;5008115;28;20096;-87
2023/04/25 05:17:32;;;;;;;0.55;0.50;;;17.70;79.60;;;;;;5007152;28;20525;-87
2023/04/25 05:19:58;;;;;;;0.47;0.47;;;17.70;79.70;;;;;;5006271;28;20523;-86
2023/04/25 05:22:24;;;;;;;0.63;0.40;;;17.70;79.60;;;;;;5006274;28;20412;-86
2023/04/25 05:24:51;;;;;;;0.50;0.40;;;17.70;80.30;;;;;;5006999;28;20133;-87
2023/04/25 05:27:17;;;;;;;1.33;0.50;;;17.70;79.60;;;;;;5010801;28;20046;-87
2023/04/25 05:29:43;;;;;;;0.50;0.50;;;17.70;79.60;;;;;;5005626;28;20045;-87
2023/04/25 05:32:09;;;;;;;0.52;0.40;;;17.70;80.30;;;;;;4987241;28;20124;-87
2023/04/25 05:34:34;;;;;;;0.57;0.57;;;17.70;79.50;;;;;;5006520;28;21242;-87
2023/04/25 05:37:00;;;;;;;0.88;0.32;;;17.70;79.50;;;;;;5008047;28;20069;-87
2023/04/25 05:39:26;;;;;;;0.40;0.32;;;17.70;79.60;;;;;;4989956;28;20061;-87
2023/04/25 05:41:52;;;;;;;0.50;0.35;;;17.70;79.50;;;;;;5008394;28;20041;-86
2023/04/25 05:44:17;;;;;;;0.50;0.50;;;17.60;79.50;;;;;;5005880;28;20049;-87
2023/04/25 05:46:43;;;;;;;0.68;0.40;;;17.70;79.60;;;;;;5002944;28;20541;-87
2023/04/25 05:49:09;;;;;;;0.52;0.38;;;17.70;79.60;;;;;;4986693;28;20101;-87
2023/04/25 05:51:34;;;;;;;0.52;0.52;;;17.70;79.60;;;;;;4986478;28;20129;-87
2023/04/25 05:54:00;;;;;;;0.50;0.50;;;17.70;79.60;;;;;;4986386;28;20050;-86
2023/04/25 05:56:26;;;;;;;0.30;0.30;;;17.70;79.60;;;;;;4986352;28;20128;-86
2023/04/25 05:58:51;;;;;;;0.40;0.40;;;17.70;79.60;;;;;;4986082;28;20050;-88
2023/04/25 06:01:17;;;;;;;0.60;0.50;;;17.70;79.60;;;;;;4980776;28;20045;-87
2023/04/25 06:03:42;;;;;;;0.57;0.52;;;17.70;79.60;;;;;;4995340;28;20585;-87
2023/04/25 06:06:09;;;;;;;0.40;0.40;;;17.70;79.50;;;;;;4995102;28;20041;-87
2023/04/25 06:08:35;;;;;;;0.40;0.40;;;17.70;79.60;;;;;;4993090;28;20423;-87
2023/04/25 06:11:00;;;;;;;0.45;0.45;;;17.70;79.60;;;;;;4986666;28;20511;-86
2023/04/25 06:13:26;;;;;;;0.30;0.30;;;17.70;79.40;;;;;;4997371;28;20511;-87
2023/04/25 06:15:51;;;;;;;0.30;0.30;;;17.70;79.40;;;;;;4996342;28;20066;-87
2023/04/25 06:18:17;;;;;;;0.45;0.40;;;17.60;79.40;;;;;;4988596;28;20508;-87
2023/04/25 06:20:42;;;;;;;0.40;0.40;;;17.70;79.50;;;;;;4986536;28;20054;-87
2023/04/25 06:23:08;;;;;;;0.60;0.50;;;17.70;79.50;;;;;;4985967;28;20515;-87
2023/04/25 06:25:34;;;;;;;0.40;0.40;;;17.70;79.40;;;;;;4987059;28;20052;-87
2023/04/25 06:27:59;;;;;;;0.43;0.43;;;17.70;79.40;;;;;;4986412;28;20456;-87
2023/04/25 06:30:25;;;;;;;1.00;0.52;;;17.70;79.40;;;;;;4987534;28;20038;-87
2023/04/25 06:32:52;;;;;;;0.38;0.38;;;17.60;79.30;;;;;;4988520;28;20532;-87
2023/04/25 06:35:18;;;;;;;0.30;0.30;;;17.70;79.40;;;;;;4987064;28;20042;-86
2023/04/25 06:37:44;;;;;;;0.35;0.30;;;17.70;80.10;;;;;;4987228;28;20615;-87
2023/04/25 06:40:10;;;;;;;0.70;0.60;;;17.70;79.50;;;;;;4986342;28;20112;-87
2023/04/25 06:42:35;;;;;;;0.43;0.40;;;17.70;79.50;;;;;;4985354;28;20393;-87
2023/04/25 06:45:01;;;;;;;0.57;0.40;;;17.70;79.40;;;;;;4986960;28;20046;-87
2023/04/25 06:47:27;;;;;;;0.60;0.30;;;17.70;79.40;;;;;;4984702;28;20049;-87
2023/04/25 06:49:52;;;;;;;0.30;0.30;;;17.70;79.40;;;;;;4986927;28;20035;-87
2023/04/25 06:52:18;;;;;;;0.40;0.40;;;17.70;79.40;;;;;;4985328;28;20086;-87
2023/04/25 06:54:44;;;;;;;0.35;0.35;;;17.70;79.40;;;;;;4986262;28;20053;-87
2023/04/25 06:57:10;;;;;;;0.50;0.30;;;17.70;79.40;;;;;;4987540;28;20495;-87
2023/04/25 06:59:35;;;;;;;0.32;0.32;;;17.70;79.40;;;;;;4984282;28;20053;-87
2023/04/25 07:02:01;;;;;;;0.50;0.35;;;17.70;80.20;;;;;;4985607;28;20563;-87
2023/04/25 07:04:26;;;;;;;0.35;0.30;;;17.70;79.30;;;;;;4985766;28;20062;-87
2023/04/25 07:06:52;;;;;;;0.40;0.40;;;17.70;79.40;;;;;;4986213;28;20129;-86
2023/04/25 07:09:18;;;;;;;0.30;0.30;;;17.70;79.30;;;;;;4986597;28;20499;-87
2023/04/25 07:11:43;;;;;;;0.30;0.30;;;17.70;79.30;;;;;;4983997;28;20058;-87
2023/04/25 07:14:09;;;;;;;0.30;0.25;;;17.70;79.30;;;;;;4985086;28;20105;-87
2023/04/25 07:16:35;;;;;;;0.30;0.30;;;17.70;79.40;;;;;;4985063;28;20543;-86
2023/04/25 07:19:00;;;;;;;0.70;0.30;;;17.70;79.30;;;;;;4984933;28;20141;-86
2023/04/25 07:21:26;;;;;;;0.40;0.40;;;17.70;79.40;;;;;;4985678;28;20038;-86
2023/04/25 07:23:51;;;;;;;0.20;0.20;;;17.70;79.50;;;;;;4986780;28;20472;-87
2023/04/25 07:26:17;;;;;;;0.32;0.30;;;17.70;79.40;;;;;;4984504;28;20031;-87
2023/04/25 07:28:43;;;;;;;0.40;0.40;;;17.70;79.30;;;;;;4984198;28;20065;-87
2023/04/25 07:31:08;;;;;;;0.77;0.50;;;17.70;79.40;;;;;;4984628;28;20451;-87
2023/04/25 07:33:34;;;;;;;0.68;0.40;;;17.80;79.40;;;;;;4986512;28;20042;-86
2023/04/25 07:36:00;;;;;;;0.30;0.30;;;17.80;79.40;;;;;;4984645;28;20634;-87
2023/04/25 07:38:26;;;;;;;0.57;0.40;;;17.80;79.40;;;;;;4986574;28;20035;-86
2023/04/25 07:40:51;;;;;;;0.30;0.25;;;17.80;79.40;;;;;;5017079;28;20042;-87
2023/04/25 07:43:17;;;;;;;0.30;0.30;;;17.80;79.30;;;;;;4996147;28;20043;-87
2023/04/25 07:45:43;;;;;;;0.50;0.50;;;17.80;79.30;;;;;;4982121;28;20133;-87
2023/04/25 07:48:09;;;;;;;0.55;0.40;;;17.80;79.20;;;;;;4984106;28;20458;-87
2023/04/25 07:50:34;;;;;;;0.30;0.30;;;17.90;79.20;;;;;;4998623;28;20046;-86
2023/04/25 07:53:00;;;;;;;0.38;0.30;;;17.80;79.10;;;;;;4986185;28;20408;-87
2023/04/25 07:55:26;;;;;;;0.28;0.20;;;17.90;79.20;;;;;;4985300;28;20129;-87
2023/04/25 07:57:51;;;;;;;0.20;0.20;;;17.90;79.20;;;;;;4986559;28;20038;-87
2023/04/25 08:00:17;;;;;;;0.40;0.40;;;17.90;79.20;;;;;;4985912;28;20055;-87
2023/04/25 08:02:43;;;;;;;0.30;0.30;;;17.90;79.20;;;;;;4997142;28;20042;-87
2023/04/25 08:05:11;;;;;;;0.20;0.20;;;17.90;79.20;;;;;;4985510;28;20046;-87
2023/04/25 08:07:37;;;;;;;0.68;0.40;;;17.90;79.20;;;;;;4984755;28;20079;-87
2023/04/25 08:10:03;;;;;;;0.20;0.20;;;17.90;79.20;;;;;;4986159;28;20102;-87
2023/04/25 08:12:29;;;;;;;0.30;0.30;;;18.00;79.30;;;;;;4986144;28;20054;-86
2023/04/25 08:14:54;;;;;;;0.30;0.30;;;17.90;79.40;;;;;;4985651;28;20101;-87
2023/04/25 08:17:20;;;;;;;0.30;0.30;;;17.90;79.20;;;;;;4983965;28;20065;-87
2023/04/25 08:19:45;;;;;;;1.25;0.50;;;17.90;79.30;;;;;;4984979;28;20070;-87
2023/04/25 08:22:12;;;;;;;0.25;0.25;;;17.90;79.30;;;;;;4982318;28;20100;-86
2023/04/25 08:24:39;;;;;;;0.40;0.40;;;17.90;79.30;;;;;;4985342;28;20062;-87
2023/04/25 08:27:06;;;;;;;0.30;0.30;;;18.00;79.50;;;;;;4985723;28;20038;-87
2023/04/25 08:29:31;;;;;;;0.30;0.30;;;18.00;79.40;;;;;;4985762;28;20125;-87
2023/04/25 08:31:57;;;;;;;0.40;0.30;;;17.90;79.30;;;;;;4988141;28;20130;-87
2023/04/25 08:34:23;;;;;;;0.60;0.40;;;18.00;79.40;;;;;;4988494;28;20192;-87
2023/04/25 08:36:48;;;;;;;0.30;0.30;;;18.00;79.40;;;;;;5007053;28;20054;-87
2023/04/25 08:39:14;;;;;;;0.40;0.40;;;18.00;79.40;;;;;;5009387;28;20437;-88
2023/04/25 08:41:40;;;;;;;0.47;0.47;;;18.00;79.40;;;;;;4999601;28;20030;-87
2023/04/25 08:44:06;;;;;;;0.30;0.30;;;18.00;79.30;;;;;;4992673;28;20049;-87
2023/04/25 08:46:32;;;;;;;0.43;0.30;;;18.10;79.20;;;;;;4986119;28;20034;-87
2023/04/25 08:49:02;;;;;;;0.30;0.30;;;18.10;79.20;;;;;;4988315;28;20047;-88
2023/04/25 08:51:27;;;;;;;0.30;0.28;;;18.10;79.20;;;;;;4987850;28;20546;-87
2023/04/25 08:53:53;;;;;;;0.30;0.30;;;18.10;79.20;;;;;;4970806;28;20058;-87
2023/04/25 08:56:22;;;;;;;0.20;0.20;;;18.10;79.30;;;;;;4988883;28;20050;-88
2023/04/25 08:58:50;;;;;;;0.40;0.40;;;18.10;79.40;;;;;;5000366;28;20073;-87
2023/04/25 09:01:16;;;;;;;0.30;0.20;;;18.10;79.20;;;;;;4985932;28;20038;-87
2023/04/25 09:03:42;;;;;;;0.20;0.20;;;18.10;79.20;;;;;;4984801;28;20042;-87
2023/04/25 09:06:10;;;;;;;0.20;0.20;;;18.10;79.20;;;;;;4985834;28;20042;-87
2023/04/25 09:08:36;;;;;;;0.30;0.30;;;18.10;80.10;;;;;;4986711;28;20439;-86
2023/04/25 09:11:02;;;;;;;0.32;0.30;;;18.10;79.20;;;;;;4987510;28;20415;-87
2023/04/25 09:13:28;;;;;;;0.30;0.30;;;18.10;79.20;;;;;;4987152;28;20123;-87
2023/04/25 09:15:55;;;;;;;0.40;0.40;;;18.10;79.20;;;;;;4984285;28;20133;-88
2023/04/25 09:18:28;;;;;;;0.30;0.30;;;18.20;79.20;;;;;;4988047;28;20065;-88
2023/04/25 09:21:07;;;;;;;0.20;0.20;;;18.20;79.90;;;;;;4986034;28;20050;-87
2023/04/25 09:23:40;;;;;;;0.50;0.30;;;18.20;79.10;;;;;;4984684;28;20035;-87
2023/04/25 09:26:06;;;;;;;0.40;0.38;;;18.20;79.00;;;;;;4983140;28;20054;-87
2023/04/25 09:28:32;;;;;;;0.20;0.20;;;18.20;78.80;;;;;;5000050;28;20051;-86
2023/04/25 09:30:57;;;;;;;0.22;0.22;;;18.20;78.80;;;;;;4982282;28;20046;-88
2023/04/25 09:33:31;;;;;;;0.20;0.20;;;18.20;78.80;;;;;;4987703;28;20427;-88
2023/04/25 09:36:05;;;;;;;0.22;0.22;;;18.20;78.80;;;;;;4983757;28;20811;-87
2023/04/25 09:38:32;;;;;;;;;;;18.20;78.90;;;;;;4987583;28;20069;-88
2023/04/25 09:40:59;;;;;;;0.20;0.20;;;18.20;78.90;;;;;;4999315;28;19997;-87
2023/04/25 09:43:24;;;;;;;0.20;0.20;;;18.20;78.70;;;;;;4989824;28;20074;-87
2023/04/25 09:45:51;;;;;;;0.17;0.17;;;18.20;78.80;;;;;;4985347;28;20066;-87
2023/04/25 09:48:26;;;;;;;0.20;0.20;;;18.20;78.70;;;;;;4982161;28;20034;-88
2023/04/25 09:51:12;;;;;;;0.22;0.22;;;18.30;78.70;;;;;;4984168;28;20142;-88
2023/04/25 09:53:39;;;;;;;0.38;0.38;;;18.20;78.60;;;;;;4984628;28;20038;-85
2023/04/25 09:56:06;;;;;;;0.30;0.30;;;18.30;78.50;;;;;;4985363;28;20037;-87
2023/04/25 09:58:32;;;;;;;0.30;0.30;;;18.20;78.60;;;;;;4985774;28;20101;-87
2023/04/25 10:01:00;;;;;;;0.20;0.20;;;18.30;78.40;;;;;;4981367;28;20132;-87
2023/04/25 10:03:26;;;;;;;0.20;0.20;;;18.30;78.30;;;;;;4985354;28;20097;-87
2023/04/25 10:05:52;;;;;;;0.20;0.20;;;18.30;78.40;;;;;;5001557;28;20039;-88
2023/04/25 10:08:17;;;;;;;0.20;0.20;;;18.30;78.30;;;;;;4999999;28;20043;-87
2023/04/25 10:10:43;;;;;;;0.20;0.20;;;18.30;78.00;;;;;;5001716;28;20065;-87
2023/04/25 10:13:08;;;;;;;0.10;0.10;;;18.30;77.20;;;;;;4996641;28;20042;-88
2023/04/25 10:15:35;;;;;;;0.10;0.10;;;18.40;77.60;;;;;;5000470;28;20034;-85
2023/04/25 10:18:01;;;;;;;0.20;0.20;;;18.40;77.70;;;;;;4986404;28;20618;-87
2023/04/25 10:20:26;;;;;;;0.20;0.20;;;18.40;78.10;;;;;;4997650;28;20042;-88
2023/04/25 10:22:53;;;;;;;0.40;0.40;;;18.40;77.60;;;;;;4985095;28;20046;-87
2023/04/25 10:25:19;;;;;;;0.30;0.30;;;18.40;77.60;;;;;;4984053;28;20296;-87
2023/04/25 10:27:45;;;;;;;0.30;0.25;;;18.40;77.70;;;;;;5001258;28;20419;-87
2023/04/25 10:30:15;;;;;;;0.20;0.20;;;18.40;77.70;;;;;;4970460;28;20072;-87
2023/04/25 10:32:42;;;;;;;0.50;0.30;;;18.40;77.60;;;;;;4979201;28;20059;-87
2023/04/25 10:35:15;;;;;;;0.10;0.10;;;18.40;77.70;;;;;;4983677;28;20046;-87
2023/04/25 10:38:09;;;;;;;0.20;0.20;;;18.40;77.70;;;;;;4998868;28;20041;-87
2023/04/25 10:40:35;;;;;;;0.40;0.20;;;18.40;77.20;;;;;;4986414;28;20188;-88
2023/04/25 10:43:33;;;;;;;0.20;0.20;;;18.40;77.30;;;;;;4977250;28;20605;-88
2023/04/25 10:46:02;;;;;;;0.32;0.20;;;18.40;77.40;;;;;;4981701;28;20034;-87
2023/04/25 10:48:30;;;;;;;0.20;0.17;;;18.50;78.20;;;;;;4984582;28;20439;-88
2023/04/25 10:51:11;;;;;;;0.20;0.20;;;18.50;77.50;;;;;;4986151;28;20077;-88
2023/04/25 10:53:37;;;;;;;0.20;0.20;;;18.50;77.40;;;;;;4984208;28;20042;-86
2023/04/25 10:56:21;;;;;;;0.28;0.20;;;18.50;77.50;;;;;;4984327;28;20042;-88
2023/04/25 10:58:47;;;;;;;0.20;0.20;;;18.50;77.50;;;;;;4982856;28;20053;-88
2023/04/25 11:01:14;;;;;;;0.20;0.20;;;18.50;77.50;;;;;;4981808;28;20046;-88
2023/04/25 11:03:43;;;;;;;0.15;0.15;;;18.50;77.50;;;;;;4982015;28;20100;-88
2023/04/25 11:06:17;;;;;;;0.20;0.20;;;18.50;77.20;;;;;;4988072;28;20050;-78
2023/04/25 11:08:49;;;;;;;0.30;0.20;;;18.50;77.10;;;;;;4985358;28;20046;-78
2023/04/25 11:11:16;;;;;;;0.10;0.10;;;18.60;76.90;;;;;;4986122;28;20050;-78
2023/04/25 11:13:41;;;;;;;0.65;0.30;;;18.60;76.90;;;;;;4985558;28;20408;-78
2023/04/25 11:16:07;;;;;;;0.30;0.30;;;18.60;76.90;;;;;;4983360;28;20065;-78
2023/04/25 11:18:34;;;;;;;0.20;0.20;;;18.60;77.10;;;;;;4986743;28;20046;-78
2023/04/25 11:20:59;;;;;;;0.20;0.20;;;18.60;77.30;;;;;;4986618;28;20181;-78
2023/04/25 11:23:26;;;;;;;0.10;0.10;;;18.60;77.10;;;;;;4983722;28;20051;-78
2023/04/25 11:25:52;;;;;;;0.22;0.22;;;18.60;76.70;;;;;;4983506;28;20133;-78
2023/04/25 11:28:22;;;;;;;0.30;0.30;;;18.60;76.90;;;;;;5000400;28;20130;-78
2023/04/25 11:30:49;;;;;;;0.30;0.30;;;18.60;76.90;;;;;;4984218;28;20046;-78
2023/04/25 11:33:15;;;;;;;0.20;0.13;;;18.60;76.90;;;;;;4983899;28;20050;-78
2023/04/25 11:35:41;;;;;;;0.10;0.10;;;18.70;76.70;;;;;;4978923;28;20102;-78
2023/04/25 11:38:06;;;;;;;0.20;0.20;;;18.60;76.60;;;;;;4983764;28;20046;-78
2023/04/25 11:40:32;;;;;;;0.17;0.15;;;18.70;76.60;;;;;;4999038;28;20038;-78
2023/04/25 11:42:59;;;;;;;0.20;0.20;;;18.60;76.70;;;;;;4985056;28;20463;-77
2023/04/25 11:45:26;;;;;;;0.20;0.20;;;18.60;76.80;;;;;;4984314;28;20129;-78
2023/04/25 11:47:51;;;;;;;0.20;0.20;;;18.60;76.50;;;;;;4982773;28;20504;-78
2023/04/25 11:50:17;;;;;;;0.15;0.15;;;18.60;76.80;;;;;;4983058;28;20058;-78
2023/04/25 11:52:46;;;;;;;0.30;0.30;;;18.60;76.90;;;;;;4983228;28;20058;-78
2023/04/25 11:55:17;;;;;;;0.28;0.28;;;18.60;76.80;;;;;;4984206;28;20375;-78
2023/04/25 11:57:43;;;;;;;0.20;0.20;;;18.60;76.90;;;;;;4981720;28;20054;-78
2023/04/25 12:00:17;;;;;;;0.20;0.10;;;18.60;76.90;;;;;;4982842;28;20529;-78
2023/04/25 12:02:52;;;;;;;0.13;0.13;;;18.60;76.80;;;;;;4984173;28;20034;-78
2023/04/25 12:05:17;;;;;;;0.22;0.22;;;18.60;76.50;;;;;;4985393;28;20070;-78
2023/04/25 12:07:43;;;;;;;0.10;0.10;;;18.70;76.60;;;;;;4987878;28;20145;-78
2023/04/25 12:10:10;;;;;;;0.10;0.10;;;18.70;76.70;;;;;;4988677;28;20137;-78
2023/04/25 12:12:35;;;;;;;0.13;0.13;;;18.60;76.80;;;;;;4983350;28;20146;-78
2023/04/25 12:15:21;;;;;;;0.10;0.10;;;18.70;76.60;;;;;;4990350;28;20083;-78
2023/04/25 12:17:47;;;;;;;0.15;0.15;;;18.70;76.50;;;;;;4994072;28;20247;-78
2023/04/25 12:20:17;;;;;;;0.20;0.20;;;18.70;76.40;;;;;;5002473;28;20046;-78
2023/04/25 12:22:47;;;;;;;0.15;0.15;;;18.70;76.40;;;;;;5005265;28;20058;-78
2023/04/25 12:25:13;;;;;;;0.17;0.17;;;18.60;76.50;;;;;;5008195;28;20042;-78
2023/04/25 12:27:42;;;;;;;0.17;0.17;;;18.60;76.70;;;;;;5010441;28;20038;-78
2023/04/25 12:30:08;;;;;;;0.20;0.20;;;18.70;76.70;;;;;;5007621;28;20052;-78
2023/04/25 12:32:33;;;;;;;0.30;0.15;;;18.70;76.60;;;;;;4993468;28;20074;-78
2023/04/25 12:34:59;;;;;;;0.35;0.20;;;18.60;76.50;;;;;;4987954;28;20066;-78
2023/04/25 12:37:24;;;;;;;0.13;0.13;;;18.70;76.50;;;;;;4991343;28;20514;-78
2023/04/25 12:39:50;;;;;;;0.10;0.10;;;18.60;76.60;;;;;;4987558;28;20073;-78
2023/04/25 12:42:16;;;;;;;0.10;0.10;;;18.70;76.30;;;;;;4988602;28;20034;-78
2023/04/25 12:44:41;;;;;;;0.20;0.20;;;18.70;76.30;;;;;;4987493;28;20066;-78